Time;durP1;ratioP1;P1;durP2;ratioP2;P2;SDS_P1;SDS_P2;PMS_P1;PMS_P2;Temp;Humidity;BMP_temperature;BMP_pressure;BME280_temperature;BME280_humidity;BME280_pressure;Samples;Min_cycle;Max_cycle;Signal;HPM_P1;HPM_P2
2023/05/14 00:00:53;;;;;;;7.40;6.80;;;15.40;94.00;;;;;;5077073;28;20448;-57
2023/05/14 00:03:20;;;;;;;6.80;6.20;;;15.40;94.20;;;;;;5076782;28;20946;-57
2023/05/14 00:05:48;;;;;;;7.53;7.03;;;15.40;94.60;;;;;;5076975;28;20468;-56
2023/05/14 00:08:14;;;;;;;7.53;7.03;;;15.30;94.30;;;;;;5076707;28;20456;-56
2023/05/14 00:10:41;;;;;;;7.53;6.93;;;15.30;94.40;;;;;;5076907;28;20452;-57
2023/05/14 00:13:08;;;;;;;6.80;6.40;;;15.30;94.30;;;;;;5076840;28;20444;-57
2023/05/14 00:15:34;;;;;;;8.50;7.90;;;15.30;94.50;;;;;;5076735;28;20473;-57
2023/05/14 00:18:02;;;;;;;11.10;9.33;;;15.20;94.30;;;;;;5076683;28;20484;-57
2023/05/14 00:20:29;;;;;;;8.27;7.63;;;15.20;94.30;;;;;;5076671;28;20453;-57
2023/05/14 00:22:56;;;;;;;9.47;8.57;;;15.20;94.40;;;;;;5076657;28;20452;-57
2023/05/14 00:25:22;;;;;;;7.77;7.07;;;15.10;94.20;;;;;;5076377;28;20471;-56
2023/05/14 00:27:49;;;;;;;11.20;10.10;;;15.10;94.60;;;;;;5076146;28;20444;-56
2023/05/14 00:30:16;;;;;;;17.83;11.70;;;15.10;95.00;;;;;;5076244;28;20448;-56
2023/05/14 00:32:42;;;;;;;12.47;11.27;;;15.20;95.50;;;;;;5076013;28;20938;-56
2023/05/14 00:35:11;;;;;;;11.40;10.20;;;15.20;95.60;;;;;;5076373;28;20469;-56
2023/05/14 00:37:37;;;;;;;10.73;9.73;;;15.20;95.50;;;;;;5075891;28;20931;-57
2023/05/14 00:40:05;;;;;;;9.50;8.70;;;15.20;95.40;;;;;;5076334;28;20459;-57
2023/05/14 00:42:32;;;;;;;14.33;13.03;;;15.20;95.40;;;;;;5075939;28;20455;-56
2023/05/14 00:44:59;;;;;;;13.30;12.13;;;15.20;95.40;;;;;;5075824;28;21007;-57
2023/05/14 00:47:25;;;;;;;12.90;11.77;;;15.30;95.60;;;;;;5076051;28;20463;-56
2023/05/14 00:49:52;;;;;;;12.40;11.13;;;15.20;95.40;;;;;;5076244;28;20519;-57
2023/05/14 00:52:21;;;;;;;11.90;10.80;;;15.20;95.10;;;;;;5076095;28;20460;-56
2023/05/14 00:54:48;;;;;;;11.73;10.53;;;15.10;94.90;;;;;;5076117;28;20472;-57
2023/05/14 00:57:15;;;;;;;12.37;11.33;;;15.10;95.30;;;;;;5076088;28;20491;-57
2023/05/14 00:59:42;;;;;;;11.73;10.63;;;15.10;94.90;;;;;;5075292;28;20938;-57
2023/05/14 01:02:08;;;;;;;13.07;9.43;;;15.10;94.80;;;;;;5075030;28;20444;-57
2023/05/14 01:04:36;;;;;;;9.20;8.50;;;15.00;94.60;;;;;;5075885;28;20485;-56
2023/05/14 01:07:12;;;;;;;10.30;9.30;;;14.90;94.50;;;;;;5075847;28;20445;-57
2023/05/14 01:09:44;;;;;;;10.87;9.33;;;14.90;94.60;;;;;;5075545;28;20467;-57
2023/05/14 01:12:19;;;;;;;8.83;8.13;;;14.80;94.60;;;;;;5075860;28;20438;-57
2023/05/14 01:14:54;;;;;;;10.03;9.20;;;14.80;94.70;;;;;;5075708;28;20529;-57
2023/05/14 01:17:22;;;;;;;10.87;9.90;;;14.70;94.70;;;;;;5076158;28;20471;-57
2023/05/14 01:19:50;;;;;;;10.23;9.17;;;14.70;94.80;;;;;;5076759;28;20981;-57
2023/05/14 01:22:18;;;;;;;10.20;9.20;;;14.60;94.70;;;;;;5076373;28;20457;-56
2023/05/14 01:24:45;;;;;;;11.00;9.90;;;14.50;94.60;;;;;;5075899;28;20472;-57
2023/05/14 01:27:18;;;;;;;10.63;9.63;;;14.50;94.90;;;;;;5075642;28;20960;-57
2023/05/14 01:29:50;;;;;;;11.80;10.80;;;14.40;94.90;;;;;;5075658;28;20429;-57
2023/05/14 01:32:19;;;;;;;9.93;9.03;;;14.40;95.00;;;;;;5075033;28;20921;-56
2023/05/14 01:34:48;;;;;;;11.40;10.37;;;14.40;95.00;;;;;;5075085;28;20500;-56
2023/05/14 01:37:16;;;;;;;13.97;12.67;;;14.30;95.10;;;;;;5075385;28;20480;-57
2023/05/14 01:39:45;;;;;;;15.10;13.70;;;14.30;95.60;;;;;;5075370;28;20445;-57
2023/05/14 01:42:12;;;;;;;17.03;13.83;;;14.40;96.10;;;;;;5075507;28;20451;-57
2023/05/14 01:44:39;;;;;;;14.00;12.70;;;14.50;96.60;;;;;;5075274;28;20473;-57
2023/05/14 01:47:06;;;;;;;14.27;13.00;;;14.50;96.30;;;;;;5075235;28;20449;-57
2023/05/14 01:49:32;;;;;;;13.27;11.93;;;14.50;96.10;;;;;;5075110;28;20451;-56
2023/05/14 01:51:59;;;;;;;13.63;12.07;;;14.40;95.80;;;;;;5075031;28;20444;-57
2023/05/14 01:54:26;;;;;;;13.70;12.40;;;14.40;95.60;;;;;;5074974;28;20473;-57
2023/05/14 01:56:54;;;;;;;12.93;11.83;;;14.40;95.60;;;;;;5075031;28;20452;-57
2023/05/14 01:59:20;;;;;;;13.50;11.10;;;14.40;95.50;;;;;;5074904;28;20441;-57
2023/05/14 02:01:47;;;;;;;13.17;11.97;;;14.40;95.30;;;;;;5074832;28;20445;-57
2023/05/14 02:04:14;;;;;;;12.40;11.27;;;14.30;95.10;;;;;;5074488;28;21009;-57
2023/05/14 02:06:41;;;;;;;11.77;10.70;;;14.30;95.00;;;;;;5074742;28;20541;-57
2023/05/14 02:09:07;;;;;;;11.40;10.20;;;14.30;94.90;;;;;;5074439;28;20452;-57
2023/05/14 02:11:34;;;;;;;12.27;10.17;;;14.20;94.20;;;;;;5074157;28;20445;-57
2023/05/14 02:14:02;;;;;;;14.47;10.90;;;14.10;94.40;;;;;;5074502;28;20448;-57
2023/05/14 02:16:28;;;;;;;14.30;12.50;;;14.10;94.80;;;;;;5074573;28;20853;-57
2023/05/14 02:18:55;;;;;;;12.47;11.40;;;14.20;95.50;;;;;;5074438;28;20518;-57
2023/05/14 02:21:22;;;;;;;12.43;11.23;;;14.10;95.40;;;;;;5074387;28;20460;-57
2023/05/14 02:23:49;;;;;;;13.70;12.40;;;14.10;95.20;;;;;;5074134;28;20955;-56
2023/05/14 02:26:15;;;;;;;13.27;11.97;;;14.10;95.30;;;;;;5074270;28;20472;-57
2023/05/14 02:28:42;;;;;;;15.17;13.73;;;14.00;95.40;;;;;;5074348;28;20456;-57
2023/05/14 02:31:10;;;;;;;16.07;14.33;;;14.00;95.70;;;;;;5074237;28;20456;-56
2023/05/14 02:33:37;;;;;;;14.80;13.50;;;14.10;95.80;;;;;;5074265;28;20445;-56
2023/05/14 02:36:03;;;;;;;15.13;13.60;;;14.00;95.70;;;;;;5073780;28;20873;-56
2023/05/14 02:38:30;;;;;;;15.23;13.93;;;14.00;95.60;;;;;;5073993;28;20503;-57
2023/05/14 02:40:57;;;;;;;16.57;14.77;;;14.00;95.50;;;;;;5074009;28;20864;-56
2023/05/14 02:43:23;;;;;;;14.50;13.20;;;14.00;95.40;;;;;;5074010;28;20456;-56
2023/05/14 02:45:50;;;;;;;13.83;12.60;;;14.00;95.40;;;;;;5073798;28;20518;-56
2023/05/14 02:48:18;;;;;;;14.00;12.70;;;14.00;95.30;;;;;;5073912;28;20858;-56
2023/05/14 02:50:45;;;;;;;14.10;12.80;;;13.90;94.80;;;;;;5073806;28;20453;-56
2023/05/14 02:53:12;;;;;;;14.93;13.47;;;13.90;94.70;;;;;;5073768;28;20452;-56
2023/05/14 02:55:39;;;;;;;14.00;12.67;;;13.90;94.80;;;;;;5073774;28;20476;-56
2023/05/14 02:58:05;;;;;;;15.23;13.70;;;13.80;94.90;;;;;;5073706;28;20473;-56
2023/05/14 03:00:32;;;;;;;18.80;14.20;;;13.90;94.90;;;;;;5073733;28;20463;-56
2023/05/14 03:02:59;;;;;;;15.13;13.70;;;13.80;94.90;;;;;;5073712;28;20456;-56
2023/05/14 03:05:27;;;;;;;13.73;12.57;;;13.80;95.00;;;;;;5073640;28;20460;-56
2023/05/14 03:07:53;;;;;;;13.47;12.07;;;13.80;95.10;;;;;;5073382;28;20463;-56
2023/05/14 03:10:20;;;;;;;12.03;11.03;;;13.80;95.20;;;;;;5073726;28;20432;-56
2023/05/14 03:12:48;;;;;;;13.47;12.23;;;13.80;95.00;;;;;;5073619;28;20449;-56
2023/05/14 03:15:14;;;;;;;13.90;12.60;;;13.70;94.80;;;;;;5073461;28;20556;-56
2023/05/14 03:17:41;;;;;;;13.80;12.10;;;13.70;94.70;;;;;;5073474;28;20511;-56
2023/05/14 03:20:09;;;;;;;14.13;13.03;;;13.60;94.70;;;;;;5073475;28;20449;-56
2023/05/14 03:22:37;;;;;;;13.60;12.50;;;13.60;94.60;;;;;;5073439;28;20505;-56
2023/05/14 03:25:04;;;;;;;13.40;12.30;;;13.60;94.60;;;;;;5072654;28;20464;-56
2023/05/14 03:27:32;;;;;;;14.37;13.07;;;13.50;94.60;;;;;;5073377;28;20448;-56
2023/05/14 03:29:59;;;;;;;14.07;12.77;;;13.50;94.60;;;;;;5073357;28;20449;-56
2023/05/14 03:32:25;;;;;;;15.07;13.20;;;13.50;94.50;;;;;;5073349;28;20471;-56
2023/05/14 03:34:52;;;;;;;13.03;11.83;;;13.50;94.50;;;;;;5073271;28;20475;-56
2023/05/14 03:37:20;;;;;;;12.93;11.63;;;13.40;94.50;;;;;;5073370;28;20449;-56
2023/05/14 03:39:48;;;;;;;13.90;11.20;;;13.40;94.70;;;;;;5073242;28;20447;-56
2023/05/14 03:42:14;;;;;;;13.97;12.77;;;13.40;94.70;;;;;;5073328;28;20440;-56
2023/05/14 03:44:41;;;;;;;13.83;12.53;;;13.40;94.70;;;;;;5073404;28;20465;-56
2023/05/14 03:47:08;;;;;;;12.83;11.73;;;13.40;94.70;;;;;;5073068;28;20454;-56
2023/05/14 03:49:34;;;;;;;12.13;11.03;;;13.30;94.60;;;;;;5073043;28;21011;-56
2023/05/14 03:52:01;;;;;;;12.90;11.60;;;13.30;94.80;;;;;;5073178;28;20542;-56
2023/05/14 03:54:28;;;;;;;10.90;10.00;;;13.30;94.70;;;;;;5073048;28;20471;-56
2023/05/14 03:56:56;;;;;;;10.67;9.70;;;13.20;94.90;;;;;;5073138;28;20502;-56
2023/05/14 03:59:22;;;;;;;10.30;9.50;;;13.20;94.50;;;;;;5073506;28;20481;-56
2023/05/14 04:01:49;;;;;;;9.63;8.80;;;13.10;94.40;;;;;;5073082;28;20448;-56
2023/05/14 04:04:16;;;;;;;8.90;8.20;;;13.20;94.60;;;;;;5072940;28;20473;-56
2023/05/14 04:06:43;;;;;;;9.10;8.30;;;13.10;94.50;;;;;;5072968;28;20457;-56
2023/05/14 04:09:10;;;;;;;10.63;8.00;;;13.00;94.40;;;;;;5072510;28;21044;-57
2023/05/14 04:11:37;;;;;;;9.60;8.80;;;13.00;94.30;;;;;;5072897;28;20449;-56
2023/05/14 04:14:05;;;;;;;8.97;8.27;;;13.00;94.30;;;;;;5072924;28;20452;-56
2023/05/14 04:16:32;;;;;;;9.10;8.30;;;13.00;94.50;;;;;;5072603;28;20992;-56
2023/05/14 04:19:02;;;;;;;10.70;9.80;;;12.90;94.40;;;;;;5072808;28;20537;-56
2023/05/14 04:21:30;;;;;;;10.70;9.80;;;12.90;94.60;;;;;;5072912;28;20433;-56
2023/05/14 04:23:57;;;;;;;9.80;9.03;;;13.00;94.90;;;;;;5072751;28;20818;-56
2023/05/14 04:26:23;;;;;;;10.07;9.17;;;13.00;94.90;;;;;;5075322;28;20469;-57
2023/05/14 04:28:50;;;;;;;11.50;10.40;;;13.00;94.80;;;;;;5074432;28;20445;-57
2023/05/14 04:31:18;;;;;;;8.83;8.13;;;13.00;94.80;;;;;;5073333;28;20455;-57
2023/05/14 04:33:45;;;;;;;10.40;9.50;;;12.90;94.90;;;;;;5073254;28;20451;-57
2023/05/14 04:36:11;;;;;;;9.37;8.47;;;12.90;95.00;;;;;;5075674;28;20472;-57
2023/05/14 04:38:38;;;;;;;6.60;6.20;;;12.90;95.00;;;;;;5076482;28;20480;-56
2023/05/14 04:41:06;;;;;;;6.90;6.40;;;12.90;94.80;;;;;;5076177;28;20440;-57
2023/05/14 04:43:32;;;;;;;6.73;6.23;;;12.80;94.70;;;;;;5076266;28;20964;-57
2023/05/14 04:45:59;;;;;;;7.07;6.47;;;12.80;94.90;;;;;;5075984;28;21051;-57
2023/05/14 04:48:27;;;;;;;5.83;5.43;;;12.80;95.10;;;;;;5076233;28;20440;-57
2023/05/14 04:50:54;;;;;;;6.50;6.10;;;12.90;95.20;;;;;;5076299;28;20535;-57
2023/05/14 04:53:20;;;;;;;6.47;6.07;;;12.90;95.30;;;;;;5076258;28;20451;-57
2023/05/14 04:55:47;;;;;;;6.77;6.27;;;12.80;95.20;;;;;;5076061;28;20522;-57
2023/05/14 04:58:14;;;;;;;5.67;5.27;;;12.80;95.40;;;;;;5075736;28;21028;-57
2023/05/14 05:00:40;;;;;;;7.23;5.60;;;12.80;95.40;;;;;;5075835;28;20970;-57
2023/05/14 05:03:07;;;;;;;5.97;5.60;;;12.80;95.40;;;;;;5076099;28;20452;-57
2023/05/14 05:05:35;;;;;;;6.47;5.97;;;12.80;95.80;;;;;;5075906;28;20468;-56
2023/05/14 05:08:02;;;;;;;6.90;6.40;;;12.80;96.20;;;;;;5075382;28;20461;-56
2023/05/14 05:10:29;;;;;;;8.33;7.63;;;12.80;96.40;;;;;;5075504;28;20938;-56
2023/05/14 05:12:55;;;;;;;8.00;7.50;;;12.90;96.70;;;;;;5075670;28;20449;-57
2023/05/14 05:15:22;;;;;;;7.27;6.77;;;13.00;96.90;;;;;;5075768;28;20834;-57
2023/05/14 05:17:49;;;;;;;11.03;10.13;;;13.00;97.00;;;;;;5075793;28;20452;-57
2023/05/14 05:20:15;;;;;;;10.33;9.47;;;13.10;97.30;;;;;;5075618;28;20480;-57
2023/05/14 05:22:43;;;;;;;11.43;10.43;;;13.20;97.50;;;;;;5075638;28;20460;-56
2023/05/14 05:25:11;;;;;;;11.87;10.77;;;13.20;97.60;;;;;;5075299;28;20468;-57
2023/05/14 05:27:38;;;;;;;11.60;10.60;;;13.30;97.70;;;;;;5075570;28;20453;-57
2023/05/14 05:30:07;;;;;;;13.43;12.23;;;13.30;97.90;;;;;;5075722;28;20934;-57
2023/05/14 05:32:34;;;;;;;12.80;11.70;;;13.40;98.00;;;;;;5075050;28;20974;-57
2023/05/14 05:35:00;;;;;;;14.87;12.20;;;13.40;98.10;;;;;;5075416;28;20471;-57
2023/05/14 05:37:27;;;;;;;24.93;22.53;;;13.50;98.30;;;;;;5075467;28;20444;-57
2023/05/14 05:39:55;;;;;;;21.40;19.50;;;13.60;99.00;;;;;;5075336;28;20480;-56
2023/05/14 05:42:22;;;;;;;21.43;19.73;;;13.70;99.30;;;;;;5075186;28;20448;-57
2023/05/14 05:44:49;;;;;;;19.13;17.53;;;13.70;99.60;;;;;;5075125;28;20504;-57
2023/05/14 05:47:15;;;;;;;19.73;18.00;;;13.70;99.80;;;;;;5074328;28;20445;-57
2023/05/14 05:49:42;;;;;;;19.00;17.23;;;13.80;99.90;;;;;;5075069;28;20444;-57
2023/05/14 05:52:09;;;;;;;19.77;17.93;;;13.80;99.90;;;;;;5074606;28;20939;-56
2023/05/14 05:54:38;;;;;;;20.93;18.90;;;13.80;99.90;;;;;;5074882;28;20500;-57
2023/05/14 05:57:06;;;;;;;22.40;20.20;;;13.90;99.90;;;;;;5074674;28;20456;-57
2023/05/14 05:59:33;;;;;;;24.10;21.70;;;13.90;99.90;;;;;;5074832;28;20480;-57
2023/05/14 06:02:00;;;;;;;23.67;21.13;;;14.10;99.90;;;;;;5074783;28;20453;-56
2023/05/14 06:04:26;;;;;;;26.07;23.40;;;14.10;99.90;;;;;;5074732;28;20460;-56
2023/05/14 06:06:53;;;;;;;24.93;22.53;;;14.20;99.90;;;;;;5074746;28;20479;-57
2023/05/14 06:09:20;;;;;;;25.70;22.60;;;14.30;99.90;;;;;;5074350;28;20467;-57
2023/05/14 06:11:47;;;;;;;27.30;24.37;;;14.50;99.90;;;;;;5074643;28;20455;-57
2023/05/14 06:14:15;;;;;;;25.63;23.33;;;14.60;99.90;;;;;;5074527;28;20480;-57
2023/05/14 06:16:41;;;;;;;27.33;24.43;;;14.70;99.90;;;;;;5074572;28;20445;-57
2023/05/14 06:19:08;;;;;;;24.33;21.93;;;14.80;99.90;;;;;;5074512;28;20545;-57
2023/05/14 06:21:35;;;;;;;25.27;22.87;;;14.90;99.90;;;;;;5074447;28;20456;-57
2023/05/14 06:24:02;;;;;;;26.90;24.20;;;15.00;99.90;;;;;;5074296;28;20502;-57
2023/05/14 06:26:29;;;;;;;26.83;24.33;;;15.10;99.90;;;;;;5074303;28;20877;-56
2023/05/14 06:28:55;;;;;;;27.27;24.43;;;15.30;99.90;;;;;;5073986;28;20833;-57
2023/05/14 06:31:23;;;;;;;25.30;22.70;;;15.40;99.90;;;;;;5074294;28;20451;-57
2023/05/14 06:33:50;;;;;;;26.40;23.80;;;15.50;99.90;;;;;;5073945;28;20441;-56
2023/05/14 06:36:17;;;;;;;26.23;23.80;;;15.60;99.90;;;;;;5074164;28;20472;-57
2023/05/14 06:38:43;;;;;;;25.47;23.17;;;15.70;99.80;;;;;;5074065;28;20468;-57
2023/05/14 06:41:10;;;;;;;24.37;21.87;;;15.80;99.80;;;;;;5074105;28;20452;-57
2023/05/14 06:43:37;;;;;;;23.67;21.40;;;15.90;99.60;;;;;;5074005;28;20444;-57
2023/05/14 06:46:03;;;;;;;22.60;20.40;;;16.00;99.30;;;;;;5073625;28;21014;-57
2023/05/14 06:48:31;;;;;;;20.80;18.80;;;16.20;99.20;;;;;;5073610;28;20857;-57
2023/05/14 06:50:58;;;;;;;25.37;22.47;;;16.30;98.80;;;;;;5073884;28;20448;-57
2023/05/14 06:53:25;;;;;;;24.37;21.87;;;16.50;98.50;;;;;;5073881;28;20455;-57
2023/05/14 06:55:51;;;;;;;23.30;21.07;;;16.50;98.50;;;;;;5073688;28;20472;-57
2023/05/14 06:58:18;;;;;;;28.37;22.30;;;16.60;98.60;;;;;;5073762;28;20456;-57
2023/05/14 07:00:45;;;;;;;24.77;21.27;;;16.70;98.50;;;;;;5073696;28;20491;-58
2023/05/14 07:03:11;;;;;;;25.10;22.50;;;16.80;98.50;;;;;;5073795;28;20470;-57
2023/05/14 07:05:40;;;;;;;34.83;23.50;;;17.00;98.30;;;;;;5073570;28;20465;-56
2023/05/14 07:08:07;;;;;;;22.43;20.20;;;17.10;97.50;;;;;;5073444;28;20510;-56
2023/05/14 07:10:34;;;;;;;14.43;13.03;;;17.20;97.00;;;;;;5073559;28;20425;-55
2023/05/14 07:13:02;;;;;;;13.53;11.07;;;17.40;95.70;;;;;;5073512;28;20471;-56
2023/05/14 07:15:28;;;;;;;17.30;13.87;;;17.50;94.80;;;;;;5073497;28;20498;-56
2023/05/14 07:17:55;;;;;;;22.80;17.80;;;17.70;94.20;;;;;;5073553;28;20475;-56
2023/05/14 07:20:22;;;;;;;21.20;17.17;;;18.00;94.30;;;;;;5073372;28;20483;-56
2023/05/14 07:22:52;;;;;;;22.57;16.73;;;18.10;93.90;;;;;;5073358;28;20452;-56
2023/05/14 07:25:19;;;;;;;19.73;17.70;;;18.30;93.70;;;;;;5073360;28;20864;-56
2023/05/14 07:27:45;;;;;;;20.83;18.73;;;18.50;93.60;;;;;;5073295;28;20448;-57
2023/05/14 07:30:13;;;;;;;21.67;17.87;;;18.70;93.20;;;;;;5073890;28;20432;-57
2023/05/14 07:32:39;;;;;;;18.47;16.67;;;18.80;92.90;;;;;;5075806;28;20448;-57
2023/05/14 07:35:07;;;;;;;22.20;19.77;;;19.00;92.60;;;;;;5074473;28;20472;-56
2023/05/14 07:37:34;;;;;;;22.50;19.40;;;19.10;92.30;;;;;;5074588;28;20452;-57
2023/05/14 07:40:02;;;;;;;20.07;17.17;;;19.30;92.10;;;;;;5074053;28;20850;-57
2023/05/14 07:42:29;;;;;;;20.80;18.60;;;19.40;91.80;;;;;;5073804;28;20444;-57
2023/05/14 07:44:56;;;;;;;18.53;16.73;;;19.60;91.40;;;;;;5074157;28;20484;-57
2023/05/14 07:47:22;;;;;;;18.17;16.57;;;19.70;91.50;;;;;;5074148;28;20452;-57
2023/05/14 07:49:53;;;;;;;18.03;15.97;;;19.90;90.90;;;;;;5073069;28;20453;-56
2023/05/14 07:52:20;;;;;;;17.37;15.87;;;20.10;90.50;;;;;;5073460;28;20433;-56
2023/05/14 07:54:47;;;;;;;19.20;17.30;;;20.30;90.30;;;;;;5072972;28;20875;-56
2023/05/14 07:57:15;;;;;;;19.50;17.57;;;20.40;89.70;;;;;;5073322;28;20448;-57
2023/05/14 07:59:42;;;;;;;18.07;15.97;;;20.50;89.30;;;;;;5073198;28;20484;-57
2023/05/14 08:02:09;;;;;;;18.23;16.33;;;20.60;89.30;;;;;;5073120;28;20453;-57
2023/05/14 08:04:36;;;;;;;17.67;16.00;;;20.70;89.20;;;;;;5073911;28;20863;-57
2023/05/14 08:07:03;;;;;;;19.70;17.70;;;20.80;88.40;;;;;;5075877;28;20444;-57
2023/05/14 08:09:29;;;;;;;19.87;17.60;;;21.00;87.70;;;;;;5075284;28;20507;-57
2023/05/14 08:11:56;;;;;;;16.70;15.40;;;21.10;87.20;;;;;;5079273;28;20969;-57
2023/05/14 08:14:24;;;;;;;17.70;16.20;;;21.30;87.00;;;;;;5076813;28;20869;-56
2023/05/14 08:16:51;;;;;;;18.30;16.20;;;21.50;85.90;;;;;;5076866;28;20455;-55
2023/05/14 08:19:18;;;;;;;22.63;20.20;;;21.70;83.50;;;;;;5076734;28;20476;-56
2023/05/14 08:21:45;;;;;;;21.40;18.40;;;21.80;84.60;;;;;;5076789;28;20452;-56
2023/05/14 08:24:12;;;;;;;17.83;16.13;;;22.00;84.20;;;;;;5077769;28;20444;-57
2023/05/14 08:26:38;;;;;;;17.07;15.40;;;22.10;82.20;;;;;;5076208;28;20943;-57
2023/05/14 08:29:05;;;;;;;15.80;14.30;;;22.30;81.80;;;;;;5076149;28;20846;-57
2023/05/14 08:31:33;;;;;;;16.13;14.80;;;22.50;79.60;;;;;;5076651;28;20451;-57
2023/05/14 08:34:00;;;;;;;16.57;14.97;;;22.60;78.60;;;;;;5076384;28;20503;-57
2023/05/14 08:36:26;;;;;;;19.27;17.57;;;22.60;77.30;;;;;;5076162;28;20446;-57
2023/05/14 08:38:53;;;;;;;15.63;13.57;;;22.80;75.70;;;;;;5076433;28;20479;-57
2023/05/14 08:41:21;;;;;;;18.60;16.77;;;22.90;76.70;;;;;;5076254;28;20480;-56
2023/05/14 08:43:56;;;;;;;19.17;17.30;;;23.10;76.20;;;;;;5076126;28;20535;-57
2023/05/14 08:46:24;;;;;;;14.87;13.47;;;23.30;75.50;;;;;;5076080;28;20436;-57
2023/05/14 08:48:57;;;;;;;17.57;15.83;;;23.40;74.20;;;;;;5076358;28;20519;-57
2023/05/14 08:51:26;;;;;;;16.33;14.90;;;23.70;71.90;;;;;;5076196;28;20511;-57
2023/05/14 08:53:52;;;;;;;17.93;16.20;;;23.60;71.00;;;;;;5076103;28;20818;-56
2023/05/14 08:56:20;;;;;;;19.17;17.57;;;23.70;70.60;;;;;;5076177;28;20456;-57
2023/05/14 08:58:47;;;;;;;15.17;13.87;;;23.80;70.70;;;;;;5076076;28;20449;-57
2023/05/14 09:01:13;;;;;;;20.03;18.27;;;23.90;70.20;;;;;;5076406;28;21012;-58
2023/05/14 09:03:40;;;;;;;15.33;13.80;;;24.10;68.90;;;;;;5076125;28;20452;-57
2023/05/14 09:06:09;;;;;;;16.60;15.13;;;24.30;69.00;;;;;;5076316;28;20476;-57
2023/05/14 09:08:37;;;;;;;16.30;14.87;;;24.40;68.00;;;;;;5075897;28;20471;-57
2023/05/14 09:11:04;;;;;;;19.10;17.30;;;24.50;67.40;;;;;;5076041;28;20824;-57
2023/05/14 09:13:31;;;;;;;14.87;13.53;;;24.50;68.00;;;;;;5076112;28;20849;-57
2023/05/14 09:15:58;;;;;;;13.87;12.50;;;24.70;68.10;;;;;;5075818;28;20476;-58
2023/05/14 09:18:25;;;;;;;15.73;14.40;;;24.80;67.90;;;;;;5075981;28;20448;-58
2023/05/14 09:20:52;;;;;;;15.43;14.13;;;24.90;66.80;;;;;;5075453;28;20513;-58
2023/05/14 09:23:20;;;;;;;14.80;13.10;;;24.90;66.20;;;;;;5075465;28;20451;-58
2023/05/14 09:25:47;;;;;;;11.53;10.63;;;25.10;66.40;;;;;;5075950;28;20480;-57
2023/05/14 09:28:17;;;;;;;15.20;14.00;;;25.20;66.00;;;;;;5075874;28;20444;-58
2023/05/14 09:30:47;;;;;;;12.03;11.13;;;25.40;65.20;;;;;;5075449;28;20452;-58
2023/05/14 09:33:26;;;;;;;12.60;11.30;;;25.70;64.20;;;;;;5075625;28;20453;-58
2023/05/14 09:35:57;;;;;;;12.87;11.77;;;25.80;62.40;;;;;;5075846;28;20491;-57
2023/05/14 09:38:28;;;;;;;11.83;10.87;;;26.00;61.60;;;;;;5075712;28;20441;-57
2023/05/14 09:40:55;;;;;;;15.37;14.00;;;26.20;61.40;;;;;;5075737;28;20465;-57
2023/05/14 09:43:22;;;;;;;15.83;14.57;;;26.40;59.30;;;;;;5076555;28;20444;-57
2023/05/14 09:45:49;;;;;;;15.77;14.10;;;26.50;57.80;;;;;;5075277;28;20468;-57
2023/05/14 09:48:16;;;;;;;15.73;14.10;;;26.50;58.10;;;;;;5075390;28;20448;-57
2023/05/14 09:50:43;;;;;;;8.80;8.00;;;26.70;58.00;;;;;;5075228;28;20455;-57
2023/05/14 09:53:10;;;;;;;9.10;8.27;;;26.90;57.10;;;;;;5075929;28;20437;-57
2023/05/14 09:55:38;;;;;;;10.70;9.63;;;27.20;56.80;;;;;;5074986;28;20477;-57
2023/05/14 09:58:05;;;;;;;9.30;8.07;;;27.50;54.30;;;;;;5074988;28;20466;-57
2023/05/14 10:00:32;;;;;;;7.77;6.97;;;27.70;54.10;;;;;;5074872;28;20484;-57
2023/05/14 10:03:03;;;;;;;10.23;9.33;;;28.00;53.30;;;;;;5074486;28;20938;-57
2023/05/14 10:05:30;;;;;;;8.03;7.23;;;28.50;51.90;;;;;;5074231;28;20471;-57
2023/05/14 10:07:59;;;;;;;8.53;7.93;;;28.80;50.20;;;;;;5074618;28;20465;-57
2023/05/14 10:10:28;;;;;;;12.13;10.70;;;29.20;48.80;;;;;;5074711;28;20421;-57
2023/05/14 10:12:58;;;;;;;10.00;9.17;;;29.70;46.40;;;;;;5074351;28;20813;-57
2023/05/14 10:15:39;;;;;;;11.87;10.80;;;30.10;45.20;;;;;;5074468;28;20468;-56
2023/05/14 10:18:11;;;;;;;12.90;11.70;;;30.30;43.80;;;;;;5074500;28;20432;-57
2023/05/14 10:20:40;;;;;;;10.17;9.27;;;30.50;42.90;;;;;;5074103;28;20994;-57
2023/05/14 10:23:07;;;;;;;9.70;8.80;;;30.70;41.60;;;;;;5074390;28;20483;-57
2023/05/14 10:25:35;;;;;;;7.67;7.17;;;30.90;40.50;;;;;;5074011;28;20986;-56
2023/05/14 10:28:04;;;;;;;9.07;8.37;;;31.30;41.00;;;;;;5074418;28;20440;-57
2023/05/14 10:30:32;;;;;;;9.10;8.40;;;31.80;41.10;;;;;;5074331;28;20467;-57
2023/05/14 10:33:17;;;;;;;7.93;7.30;;;32.40;39.90;;;;;;5074086;28;20451;-57
2023/05/14 10:35:59;;;;;;;11.70;10.70;;;33.10;37.50;;;;;;5075658;28;20474;-57
2023/05/14 10:38:27;;;;;;;11.13;10.23;;;33.50;33.80;;;;;;5075400;28;20435;-57
2023/05/14 10:41:02;;;;;;;8.40;7.70;;;33.90;33.10;;;;;;5075245;28;20484;-56
2023/05/14 10:43:31;;;;;;;10.20;9.20;;;34.20;33.00;;;;;;5074480;28;20428;-57
2023/05/14 10:45:59;;;;;;;10.50;8.97;;;34.80;32.20;;;;;;5073962;28;20749;-57
2023/05/14 10:48:26;;;;;;;9.63;8.63;;;35.20;30.60;;;;;;5073758;28;20719;-57
2023/05/14 10:50:54;;;;;;;8.20;7.60;;;35.90;30.40;;;;;;5074207;28;20225;-57
2023/05/14 10:53:21;;;;;;;8.38;7.78;;;36.50;30.00;;;;;;5074074;28;20206;-57
2023/05/14 10:55:47;;;;;;;9.43;8.73;;;37.10;28.70;;;;;;5073917;28;20659;-57
2023/05/14 10:58:15;;;;;;;8.25;7.00;;;37.40;26.70;;;;;;5073930;28;20205;-56
2023/05/14 11:00:48;;;;;;;7.07;6.40;;;37.50;25.60;;;;;;5073801;28;20264;-57
2023/05/14 11:03:16;;;;;;;8.05;7.25;;;37.70;23.80;;;;;;5073880;28;20201;-58
2023/05/14 11:05:43;;;;;;;10.07;9.07;;;37.40;24.40;;;;;;5073717;28;20228;-59
2023/05/14 11:08:11;;;;;;;7.93;7.20;;;37.50;24.80;;;;;;5073346;28;20679;-59
2023/05/14 11:10:39;;;;;;;7.38;6.78;;;37.50;25.10;;;;;;5074567;28;20182;-59
2023/05/14 11:13:06;;;;;;;8.48;7.78;;;37.50;26.50;;;;;;5073633;28;20212;-59
2023/05/14 11:15:33;;;;;;;8.20;7.18;;;37.80;24.80;;;;;;5073246;28;20217;-59
2023/05/14 11:18:01;;;;;;;7.50;6.90;;;37.40;25.20;;;;;;5073618;28;20228;-59
2023/05/14 11:20:28;;;;;;;8.30;6.28;;;37.10;25.40;;;;;;5073549;28;20222;-59
2023/05/14 11:22:55;;;;;;;6.13;5.40;;;37.10;24.80;;;;;;5073187;28;20680;-59
2023/05/14 11:25:24;;;;;;;7.53;5.80;;;36.80;24.60;;;;;;5073113;28;20687;-57
2023/05/14 11:27:54;;;;;;;5.80;5.30;;;36.60;24.30;;;;;;5073496;28;20201;-57
2023/05/14 11:30:21;;;;;;;6.68;6.28;;;37.00;24.80;;;;;;5073459;28;20182;-58
2023/05/14 11:32:49;;;;;;;8.43;6.65;;;37.50;24.60;;;;;;5073330;28;20206;-58
2023/05/14 11:35:17;;;;;;;7.57;6.88;;;37.50;24.30;;;;;;5073307;28;20218;-58
2023/05/14 11:37:50;;;;;;;6.75;6.20;;;36.80;23.90;;;;;;5073363;28;20259;-58
2023/05/14 11:40:16;;;;;;;6.75;6.13;;;36.30;25.30;;;;;;5073350;28;20610;-58
2023/05/14 11:42:43;;;;;;;6.03;5.47;;;35.80;26.90;;;;;;5073352;28;20225;-58
2023/05/14 11:45:11;;;;;;;6.40;5.90;;;36.10;26.10;;;;;;5072430;28;20217;-58
2023/05/14 11:47:38;;;;;;;7.03;6.28;;;37.00;25.90;;;;;;5073210;28;20255;-58
2023/05/14 11:50:06;;;;;;;6.30;5.50;;;38.00;24.90;;;;;;5073225;28;20267;-57
2023/05/14 11:52:39;;;;;;;6.68;5.72;;;39.20;23.20;;;;;;5073177;28;20581;-58
2023/05/14 11:55:10;;;;;;;8.75;7.93;;;40.10;22.30;;;;;;5073175;28;20282;-58
2023/05/14 11:57:37;;;;;;;8.10;7.60;;;40.30;21.70;;;;;;5073226;28;20281;-58
2023/05/14 12:00:07;;;;;;;7.65;7.00;;;39.90;21.50;;;;;;5072702;28;20201;-58
2023/05/14 12:02:34;;;;;;;9.75;9.00;;;39.20;22.40;;;;;;5073147;28;20187;-58
2023/05/14 12:05:01;;;;;;;9.90;8.93;;;38.20;23.50;;;;;;5073006;28;20248;-58
2023/05/14 12:07:29;;;;;;;12.85;9.48;;;37.00;24.10;;;;;;5072938;28;20209;-57
2023/05/14 12:10:01;;;;;;;23.73;21.93;;;35.80;25.40;;;;;;5072635;28;20213;-56
2023/05/14 12:12:28;;;;;;;41.97;39.07;;;34.60;27.30;;;;;;5072963;28;20261;-57
2023/05/14 12:14:54;;;;;;;14.20;13.20;;;33.50;29.30;;;;;;5072873;28;20232;-56
2023/05/14 12:17:22;;;;;;;8.57;7.97;;;32.60;29.80;;;;;;5072933;28;20444;-57
2023/05/14 12:19:51;;;;;;;7.20;6.50;;;31.60;30.30;;;;;;5072917;28;20443;-56
2023/05/14 12:22:19;;;;;;;5.57;5.00;;;30.70;30.60;;;;;;5072780;28;20487;-56
2023/05/14 12:24:53;;;;;;;6.10;5.60;;;29.80;31.40;;;;;;5072809;28;20498;-56
2023/05/14 12:27:23;;;;;;;7.60;6.73;;;29.00;32.00;;;;;;5072554;28;20852;-56
2023/05/14 12:29:52;;;;;;;6.00;5.40;;;28.30;35.00;;;;;;5073637;28;20476;-56
2023/05/14 12:32:19;;;;;;;7.30;6.70;;;27.90;36.40;;;;;;5072765;28;20451;-56
2023/05/14 12:34:45;;;;;;;7.10;6.00;;;27.50;37.20;;;;;;5072694;28;20468;-56